createdAt,value
2022-08-22T00:01:13.022Z,93770.94
2022-08-22T00:02:43.199Z,93783.25
2022-08-22T00:02:46.133Z,93783.22
2022-08-22T00:02:48.245Z,93799.97
2022-08-22T00:02:55.977Z,93796.13
2022-08-22T00:02:56.966Z,93767.56
2022-08-22T00:02:57.968Z,93784.50
2022-08-22T00:03:07.476Z,93785.47
2022-08-22T00:03:09.777Z,93785.03
2022-08-22T00:03:54.657Z,93766.59
2022-08-22T00:06:30.536Z,93768.72
2022-08-22T00:09:15.280Z,93769.22
2022-08-22T00:11:49.529Z,93767.84
2022-08-22T00:14:23.625Z,93755.47
2022-08-22T00:17:01.576Z,93756.75
2022-08-22T00:19:50.345Z,93764.50
2022-08-22T00:22:26.707Z,93768.19
2022-08-22T00:25:02.169Z,93759.88
2022-08-22T00:27:35.957Z,93755.19
2022-08-22T00:30:10.341Z,93752.16
2022-08-22T00:32:43.671Z,93761.75
2022-08-22T00:35:20.926Z,93753.88
2022-08-22T00:38:00.380Z,93756.06
2022-08-22T00:40:53.634Z,93750.47
2022-08-22T00:43:52.598Z,93746.16
2022-08-22T00:47:14.053Z,93741.16
2022-08-22T00:50:04.717Z,93738.91
2022-08-22T00:53:00.517Z,93741.31
2022-08-22T00:55:48.206Z,93742.34
2022-08-22T00:58:53.032Z,93745.03
2022-08-22T01:01:29.831Z,93740.19
2022-08-22T01:04:16.191Z,93744.53
2022-08-22T01:06:58.698Z,93745.81
2022-08-22T01:09:39.644Z,93745.31
2022-08-22T01:12:25.874Z,93738.91
2022-08-22T01:14:58.536Z,93743.59
2022-08-22T01:17:52.571Z,93747.16
2022-08-22T01:20:57.299Z,93742.50
2022-08-22T01:24:01.915Z,93739.38
2022-08-22T01:27:17.935Z,93740.06
2022-08-22T01:30:16.469Z,93736.75
2022-08-22T01:33:23.280Z,93752.31
2022-08-22T01:36:31.137Z,93744.63
2022-08-22T01:39:30.554Z,93752.22
2022-08-22T01:42:43.522Z,93751.97
2022-08-22T01:45:53.797Z,93747.84
2022-08-22T01:48:27.369Z,93748.78
2022-08-22T01:50:59.461Z,93747.50
2022-08-22T01:53:40.703Z,93745.38
2022-08-22T01:56:13.448Z,93747.19
2022-08-22T01:58:55.028Z,93739.28
2022-08-22T02:01:33.974Z,93749.91
2022-08-22T02:04:07.496Z,93744.97
2022-08-22T02:06:46.282Z,93751.25
2022-08-22T02:09:32.973Z,93750.94
2022-08-22T02:12:21.846Z,93747.59
2022-08-22T02:15:00.665Z,93747.50
2022-08-22T02:17:32.555Z,93744.63
2022-08-22T02:20:07.957Z,93745.81
2022-08-22T02:22:44.631Z,93747.19
2022-08-22T02:25:22.783Z,93741.84
2022-08-22T02:27:58.940Z,93745.91
2022-08-22T02:30:45.059Z,93747.06
2022-08-22T02:33:24.090Z,93750.47
2022-08-22T02:36:00.349Z,93744.56
2022-08-22T02:38:35.019Z,93747.19
2022-08-22T02:41:15.781Z,93742.09
2022-08-22T02:43:50.663Z,93745.91
2022-08-22T02:46:28.380Z,93748.44
2022-08-22T02:49:06.535Z,93750.09
2022-08-22T02:51:47.426Z,93761.44
2022-08-22T02:54:24.721Z,93755.06
2022-08-22T02:57:02.080Z,93759.72
2022-08-22T02:59:36.676Z,93759.56
2022-08-22T03:02:33.577Z,93751.59
2022-08-22T03:05:15.671Z,93744.06
2022-08-22T03:07:50.299Z,93751.16
2022-08-22T03:10:24.115Z,93757.59
2022-08-22T03:13:03.835Z,93757.81
2022-08-22T03:15:38.246Z,93750.25
2022-08-22T03:18:19.759Z,93753.13
2022-08-22T03:20:55.595Z,93764.44
2022-08-22T03:23:37.853Z,93766.00
2022-08-22T03:26:14.548Z,93757.00
2022-08-22T03:28:58.923Z,93767.28
2022-08-22T03:31:30.080Z,93768.53
2022-08-22T03:34:20.369Z,93770.63
2022-08-22T03:36:59.052Z,93762.16
2022-08-22T03:39:49.870Z,93762.97
2022-08-22T03:42:53.477Z,93764.25
2022-08-22T03:46:12.128Z,93761.28
2022-08-22T03:49:18.320Z,93760.25
2022-08-22T03:52:05.096Z,93767.31
2022-08-22T03:55:03.498Z,93766.97
2022-08-22T03:57:59.147Z,93758.50
2022-08-22T04:00:51.996Z,93762.97
2022-08-22T04:04:01.466Z,93757.63
2022-08-22T04:06:56.378Z,93755.31
2022-08-22T04:09:59.656Z,93753.84
2022-08-22T04:12:49.652Z,93756.69
2022-08-22T04:16:13.090Z,93760.34
2022-08-22T04:18:58.725Z,93758.72
2022-08-22T04:21:43.178Z,93765.47
2022-08-22T04:24:30.824Z,93755.38
2022-08-22T04:27:03.537Z,93761.06
2022-08-22T04:29:36.889Z,93758.19
2022-08-22T04:32:14.009Z,93761.94
2022-08-22T04:34:50.032Z,93762.84
2022-08-22T04:37:23.423Z,93765.31
2022-08-22T04:39:56.962Z,93769.47
2022-08-22T04:42:33.675Z,93773.06
2022-08-22T04:45:07.020Z,93777.16
2022-08-22T04:47:39.185Z,93775.06
2022-08-22T04:50:16.993Z,93778.91
2022-08-22T04:53:09.180Z,93783.47
2022-08-22T04:55:57.075Z,93782.53
2022-08-22T04:58:56.654Z,93780.94
2022-08-22T05:01:27.632Z,93778.31
2022-08-22T05:04:02.394Z,93780.84
2022-08-22T05:06:35.291Z,93786.81
2022-08-22T05:09:11.861Z,93788.66
2022-08-22T05:11:46.201Z,93800.25
2022-08-22T05:14:20.013Z,93794.13
2022-08-22T05:16:53.387Z,93810.47
2022-08-22T05:19:33.392Z,93808.97
2022-08-22T05:22:05.458Z,93807.44
2022-08-22T05:24:42.251Z,93813.66
2022-08-22T05:27:16.556Z,93809.38
2022-08-22T05:30:06.982Z,93811.38
2022-08-22T05:32:43.695Z,93818.28
2022-08-22T05:35:12.431Z,93817.00
2022-08-22T05:37:52.433Z,93812.22
2022-08-22T05:40:24.679Z,93820.34
2022-08-22T05:42:57.351Z,93825.31
2022-08-22T05:45:28.417Z,93817.41
2022-08-22T05:48:04.290Z,93826.41
2022-08-22T05:50:41.226Z,93827.28
2022-08-22T05:53:17.317Z,93833.50
2022-08-22T05:55:58.999Z,93846.03
2022-08-22T05:58:47.645Z,93852.88
2022-08-22T06:01:30.207Z,93853.16
2022-08-22T06:04:07.548Z,93847.88
2022-08-22T06:09:58.522Z,93851.00
2022-08-22T06:12:37.906Z,93853.44
2022-08-22T06:15:20.992Z,93853.28
2022-08-22T06:17:51.844Z,93855.81
2022-08-22T06:20:23.263Z,93854.56
2022-08-22T06:22:55.730Z,93857.06
2022-08-22T06:25:30.050Z,93858.69
2022-08-22T06:28:03.027Z,93863.09
2022-08-22T06:30:31.885Z,93859.38
2022-08-22T06:33:04.732Z,93854.31
2022-08-22T06:35:51.031Z,93863.09
2022-08-22T06:38:21.882Z,93859.03
2022-08-22T06:40:55.846Z,93859.34
2022-08-22T06:43:26.132Z,93860.06
2022-08-22T06:45:54.870Z,93868.19
2022-08-22T06:48:25.227Z,93863.53
2022-08-22T06:50:59.153Z,93869.50
2022-08-22T06:53:45.957Z,93862.22
2022-08-22T06:56:26.576Z,93865.00
2022-08-22T06:59:06.489Z,93871.16
2022-08-22T07:01:38.856Z,93874.22
2022-08-22T07:04:10.266Z,93877.47
2022-08-22T07:06:46.480Z,93872.91
2022-08-22T07:09:30.097Z,93879.03
2022-08-22T07:12:17.299Z,93893.78
2022-08-22T07:14:50.914Z,93891.91
2022-08-22T07:17:24.869Z,93895.47
2022-08-22T07:20:00.782Z,93894.22
2022-08-22T07:22:33.120Z,93898.41
2022-08-22T07:25:04.845Z,93902.16
2022-08-22T07:28:01.353Z,93909.13
2022-08-22T07:30:46.042Z,93898.16
2022-08-22T07:33:28.759Z,93911.19
2022-08-22T07:36:01.660Z,93905.38
2022-08-22T07:38:43.154Z,93913.06
2022-08-22T07:41:18.026Z,93899.34
2022-08-22T07:43:51.985Z,93904.94
2022-08-22T07:46:29.935Z,93907.88
2022-08-22T07:49:09.628Z,93907.34
2022-08-22T07:51:45.893Z,93910.53
2022-08-22T07:54:21.420Z,93910.53
2022-08-22T07:57:00.402Z,93908.94
2022-08-22T07:59:34.474Z,93913.47
2022-08-22T08:02:06.201Z,93907.91
2022-08-22T08:04:40.438Z,93905.25
2022-08-22T08:07:11.993Z,93906.84
2022-08-22T08:09:44.591Z,93901.00
2022-08-22T08:12:14.083Z,93905.00
2022-08-22T08:14:48.031Z,93901.59
2022-08-22T08:17:21.764Z,93908.47
2022-08-22T08:19:54.474Z,93915.09
2022-08-22T08:22:26.735Z,93901.06
2022-08-22T08:24:57.577Z,93912.41
2022-08-22T08:27:50.309Z,93910.03
2022-08-22T08:30:36.826Z,93914.25
2022-08-22T08:33:25.528Z,93920.34
2022-08-22T08:36:03.383Z,93925.03
2022-08-22T08:38:37.828Z,93925.03
2022-08-22T08:41:40.600Z,93921.75
2022-08-22T08:44:21.862Z,93926.78
2022-08-22T08:47:16.995Z,93934.28
2022-08-22T08:50:11.756Z,93931.03
2022-08-22T08:53:07.922Z,93938.25
2022-08-22T08:55:48.075Z,93931.84
2022-08-22T08:58:34.670Z,93929.41
2022-08-22T09:01:27.453Z,93940.81
2022-08-22T09:04:23.006Z,93946.03
2022-08-22T09:07:25.770Z,93941.88
2022-08-22T09:10:16.694Z,93938.03
2022-08-22T09:13:12.988Z,93946.94
2022-08-22T09:16:10.121Z,93941.91
2022-08-22T09:19:18.669Z,93943.28
2022-08-22T09:22:25.100Z,93946.03
2022-08-22T09:25:18.595Z,93948.06
2022-08-22T09:27:55.358Z,93947.34
2022-08-22T09:30:28.872Z,93946.81
2022-08-22T09:33:01.429Z,93953.53
2022-08-22T09:35:50.256Z,93948.31
2022-08-22T09:38:34.571Z,93952.88
2022-08-22T09:41:16.122Z,93956.47
2022-08-22T09:43:49.314Z,93949.00
2022-08-22T09:46:31.452Z,93945.00
2022-08-22T09:49:12.469Z,93939.25
2022-08-22T09:51:46.355Z,93939.38
2022-08-22T09:54:36.863Z,93933.13
2022-08-22T09:57:23.098Z,93935.56
2022-08-22T10:00:15.018Z,93935.50
2022-08-22T10:02:53.424Z,93924.75
2022-08-22T10:05:40.495Z,93919.72
2022-08-22T10:08:29.830Z,93922.38
2022-08-22T10:11:24.643Z,93925.28
2022-08-22T10:14:00.687Z,93921.28
2022-08-22T10:20:07.383Z,93918.09
2022-08-22T10:22:46.093Z,93917.28
2022-08-22T10:25:33.250Z,93915.44
2022-08-22T10:28:17.347Z,93909.81
2022-08-22T10:31:08.636Z,93905.81
2022-08-22T10:33:44.486Z,93899.34
2022-08-22T10:36:26.224Z,93895.78
2022-08-22T10:38:58.322Z,93889.47
2022-08-22T10:41:37.161Z,93879.09
2022-08-22T10:44:17.446Z,93885.09
2022-08-22T10:47:08.047Z,93886.53
2022-08-22T10:49:43.657Z,93881.94
2022-08-22T10:52:33.127Z,93888.88
2022-08-22T10:55:10.090Z,93882.28
2022-08-22T10:57:56.416Z,93880.63
2022-08-22T11:00:46.430Z,93879.81
2022-08-22T11:03:25.610Z,93887.88
2022-08-22T11:05:56.549Z,93889.84
2022-08-22T11:08:58.017Z,93886.53
2022-08-22T11:11:41.034Z,93884.53
2022-08-22T11:14:38.080Z,93880.59
2022-08-22T11:17:29.930Z,93879.03
2022-08-22T11:20:15.592Z,93871.28
2022-08-22T11:22:59.947Z,93867.00
2022-08-22T11:25:54.152Z,93881.63
2022-08-22T11:29:13.471Z,93859.91
2022-08-22T11:31:52.284Z,93872.19
2022-08-22T11:34:34.502Z,93877.53
2022-08-22T11:37:11.073Z,93873.09
2022-08-22T11:39:47.141Z,93877.28
2022-08-22T11:42:25.959Z,93869.25
2022-08-22T11:45:01.314Z,93861.38
2022-08-22T11:47:37.050Z,93858.75
2022-08-22T11:50:21.901Z,93864.38
2022-08-22T11:53:23.682Z,93870.84
2022-08-22T11:56:05.450Z,93866.25
2022-08-22T11:58:46.602Z,93863.00
2022-08-22T12:01:18.755Z,93859.09
2022-08-22T12:04:03.467Z,93850.69
2022-08-22T12:06:49.769Z,93844.47
2022-08-22T12:09:47.903Z,93846.84
2022-08-22T12:12:25.574Z,93850.31
2022-08-22T12:15:10.861Z,93846.94
2022-08-22T12:18:36.385Z,93848.84
2022-08-22T12:21:38.555Z,93839.72
2022-08-22T12:24:26.273Z,93836.34
2022-08-22T12:27:33.240Z,93825.31
2022-08-22T12:30:35.129Z,93836.97
2022-08-22T12:33:41.661Z,93819.56
2022-08-22T12:36:35.341Z,93812.16
2022-08-22T12:39:49.138Z,93815.38
2022-08-22T12:42:44.540Z,93797.97
2022-08-22T12:45:28.870Z,93793.88
2022-08-22T12:48:10.592Z,93789.00
2022-08-22T12:51:03.303Z,93789.63
2022-08-22T12:54:42.860Z,93800.28
2022-08-22T12:57:23.813Z,93794.53
2022-08-22T12:59:58.129Z,93793.03
2022-08-22T13:02:44.153Z,93779.50
2022-08-22T13:05:19.856Z,93774.19
2022-08-22T13:08:04.556Z,93792.94
2022-08-22T13:10:47.000Z,93813.63
2022-08-22T13:13:31.605Z,93820.78
2022-08-22T13:16:11.730Z,93798.16
2022-08-22T13:18:53.714Z,93817.06
2022-08-22T13:21:33.314Z,93817.47
2022-08-22T13:24:16.899Z,93804.28
2022-08-22T13:26:57.719Z,93817.25
2022-08-22T13:29:45.418Z,93825.97
2022-08-22T13:32:27.726Z,93840.81
2022-08-22T13:35:00.181Z,93846.16
2022-08-22T13:37:33.797Z,93845.47
2022-08-22T13:40:30.555Z,93835.56
2022-08-22T13:43:08.435Z,93852.69
2022-08-22T13:45:38.225Z,93862.03
2022-08-22T13:48:11.740Z,93896.63
2022-08-22T13:51:04.832Z,93900.75
2022-08-22T13:53:42.390Z,93885.13
2022-08-22T13:56:26.348Z,93811.22
2022-08-22T13:59:00.034Z,93779.75
2022-08-22T14:01:41.853Z,93778.25
2022-08-22T14:04:28.718Z,93767.56
2022-08-22T14:07:25.518Z,93764.91
2022-08-22T14:09:58.216Z,93771.00
2022-08-22T14:12:33.519Z,93768.88
2022-08-22T14:15:32.343Z,93780.25
2022-08-22T14:18:15.321Z,93781.66
2022-08-22T14:20:51.501Z,93787.59
2022-08-22T14:23:29.441Z,93787.88
2022-08-22T14:25:59.433Z,93795.38
2022-08-22T14:28:32.947Z,93789.78
2022-08-22T14:31:13.493Z,93806.16
2022-08-22T14:33:49.546Z,93785.06
2022-08-22T14:36:21.287Z,93797.09
2022-08-22T14:38:56.772Z,93794.16
2022-08-22T14:41:52.598Z,93772.97
2022-08-22T14:44:28.540Z,93789.44
2022-08-22T14:47:01.201Z,93784.00
2022-08-22T14:55:30.581Z,93774.34
2022-08-22T14:58:05.940Z,93777.00
2022-08-22T15:00:38.393Z,93760.34
2022-08-22T15:03:16.683Z,93770.69
2022-08-22T15:05:51.986Z,93776.66
2022-08-22T15:08:30.248Z,93761.88
2022-08-22T15:11:25.625Z,93766.34
2022-08-22T15:14:01.022Z,93741.63
2022-08-22T15:16:35.038Z,93747.53
2022-08-22T15:19:06.798Z,93749.91
2022-08-22T15:21:36.942Z,93753.63
2022-08-22T15:24:14.065Z,93748.94
2022-08-22T15:26:52.463Z,93739.41
2022-08-22T15:29:27.071Z,93756.88
2022-08-22T15:32:05.522Z,93746.56
2022-08-22T15:37:32.400Z,93750.03
2022-08-22T15:40:14.024Z,93759.25
2022-08-22T15:43:00.401Z,93758.13
2022-08-22T15:45:33.705Z,93756.84
2022-08-22T15:48:09.391Z,93760.53
2022-08-22T15:50:43.280Z,93760.03
2022-08-22T15:53:29.411Z,93776.41
2022-08-22T15:56:27.345Z,93784.63
2022-08-22T15:59:27.370Z,93791.25
2022-08-22T16:02:13.685Z,93801.56
2022-08-22T16:05:02.396Z,93800.50
2022-08-22T16:07:44.079Z,93797.31
2022-08-22T16:10:34.197Z,93803.16
2022-08-22T16:13:38.126Z,93809.44
2022-08-22T16:19:19.215Z,93819.19
2022-08-22T16:22:35.809Z,93829.22
2022-08-22T16:25:11.980Z,93814.41
2022-08-22T16:27:55.854Z,93813.38
2022-08-22T16:30:42.494Z,93821.88
2022-08-22T16:36:39.240Z,93828.53
2022-08-22T16:39:15.624Z,93817.78
2022-08-22T16:41:46.379Z,93815.16
2022-08-22T16:44:24.171Z,93813.84
2022-08-22T16:46:56.614Z,93807.78
2022-08-22T16:49:30.473Z,93808.91
2022-08-22T16:52:35.585Z,93809.91
2022-08-22T16:55:10.181Z,93798.78
2022-08-22T16:58:06.084Z,93798.25
2022-08-22T17:00:48.738Z,93798.56
2022-08-22T17:03:34.230Z,93799.97
2022-08-22T17:06:26.969Z,93801.03
2022-08-22T17:09:14.913Z,93786.00
2022-08-22T17:11:50.749Z,93795.06
2022-08-22T17:14:41.613Z,93785.25
2022-08-22T17:17:29.987Z,93786.56
2022-08-22T17:20:32.761Z,93787.63
2022-08-22T17:30:11.936Z,93784.78
2022-08-22T17:33:00.571Z,93802.72
2022-08-22T17:35:49.902Z,93797.38
2022-08-22T17:38:36.692Z,93797.88
2022-08-22T17:41:29.681Z,93809.00
2022-08-22T17:44:19.180Z,93806.25
2022-08-22T17:47:07.481Z,93809.38
2022-08-22T17:52:44.663Z,93805.25
2022-08-22T17:55:18.601Z,93822.94
2022-08-22T17:57:55.416Z,93822.16
2022-08-22T18:00:36.523Z,93815.47
2022-08-22T18:03:10.035Z,93818.88
2022-08-22T18:05:49.275Z,93817.28
2022-08-22T18:11:25.496Z,93835.63
2022-08-22T18:14:05.094Z,93822.88
2022-08-22T18:16:51.022Z,93840.56
2022-08-22T18:19:42.009Z,93837.09
2022-08-22T18:26:04.376Z,93842.44
2022-08-22T18:28:38.764Z,93842.59
2022-08-22T18:34:33.449Z,93849.69
2022-08-22T18:40:29.577Z,93848.09
2022-08-22T18:43:14.704Z,93860.38
2022-08-22T18:46:03.874Z,93863.91
2022-08-22T18:51:41.286Z,93872.16
2022-08-22T18:54:36.038Z,93873.56
2022-08-22T19:00:13.309Z,93867.53
2022-08-22T19:03:30.425Z,93879.66
2022-08-22T19:06:37.932Z,93877.56
2022-08-22T19:09:39.226Z,93874.13
2022-08-22T19:12:21.348Z,93879.91
2022-08-22T19:15:10.418Z,93878.72
2022-08-22T19:18:10.505Z,93877.09
2022-08-22T19:20:58.229Z,93881.09
2022-08-22T19:23:49.344Z,93881.06
2022-08-22T19:26:29.114Z,93885.94
2022-08-22T19:29:00.846Z,93882.78
2022-08-22T19:31:46.512Z,93889.59
2022-08-22T19:34:22.321Z,93894.06
2022-08-22T19:37:38.260Z,93883.59
2022-08-22T19:40:14.323Z,93891.50
2022-08-22T19:42:55.173Z,93882.84
2022-08-22T19:45:29.440Z,93885.19
2022-08-22T19:48:01.994Z,93889.00
2022-08-22T19:50:39.641Z,93881.75
2022-08-22T19:53:35.893Z,93888.63
2022-08-22T19:56:23.558Z,93875.34
2022-08-22T19:59:09.113Z,93881.22
2022-08-22T20:01:46.776Z,93886.28
2022-08-22T20:04:40.725Z,93888.69
2022-08-22T20:07:24.239Z,93891.41
2022-08-22T20:10:04.638Z,93883.41
2022-08-22T20:12:55.189Z,93890.44
2022-08-22T20:15:27.562Z,93889.19
2022-08-22T20:18:12.127Z,93888.16
2022-08-22T20:23:45.359Z,93880.97
2022-08-22T20:26:20.538Z,93876.94
2022-08-22T20:28:53.407Z,93887.38
2022-08-22T20:31:24.074Z,93884.00
2022-08-22T20:33:58.947Z,93881.69
2022-08-22T20:36:29.399Z,93867.13
2022-08-22T20:39:03.374Z,93880.28
2022-08-22T20:41:38.775Z,93881.09
2022-08-22T20:44:15.906Z,93889.78
2022-08-22T20:46:53.774Z,93884.63
2022-08-22T20:49:27.033Z,93891.31
2022-08-22T20:51:59.670Z,93892.66
2022-08-22T20:54:32.536Z,93899.94
2022-08-22T20:57:03.384Z,93905.97
2022-08-22T20:59:36.686Z,93906.78
2022-08-22T21:02:10.320Z,93906.31
2022-08-22T21:04:52.718Z,93910.06
2022-08-22T21:07:23.269Z,93901.97
2022-08-22T21:10:36.945Z,93906.31
2022-08-22T21:13:08.973Z,93899.94
2022-08-22T21:15:39.521Z,93888.69
2022-08-22T21:18:09.327Z,93893.28
2022-08-22T21:20:39.953Z,93880.03
2022-08-22T21:23:20.804Z,93879.53
2022-08-22T21:25:56.673Z,93886.41
2022-08-22T21:28:34.086Z,93880.84
2022-08-22T21:31:11.217Z,93895.09
2022-08-22T21:33:43.308Z,93903.38
2022-08-22T21:36:15.269Z,93904.13
2022-08-22T21:38:49.776Z,93899.66
2022-08-22T21:41:28.238Z,93898.31
2022-08-22T21:43:56.875Z,93898.91
2022-08-22T21:46:28.680Z,93897.19
2022-08-22T21:49:01.111Z,93888.19
2022-08-22T21:51:33.138Z,93886.41
2022-08-22T21:54:20.876Z,93890.09
2022-08-22T21:56:51.157Z,93887.63
2022-08-22T21:59:52.142Z,93875.97
2022-08-22T22:02:34.219Z,93873.94
2022-08-22T22:05:09.550Z,93873.06
2022-08-22T22:07:40.237Z,93870.25
2022-08-22T22:10:10.804Z,93866.59
2022-08-22T22:12:41.948Z,93863.97
2022-08-22T22:15:13.459Z,93861.38
2022-08-22T22:17:41.715Z,93860.56
2022-08-22T22:20:11.281Z,93866.91
2022-08-22T22:22:45.722Z,93854.44
2022-08-22T22:25:39.825Z,93855.94
2022-08-22T22:28:07.283Z,93852.88
2022-08-22T22:30:35.928Z,93851.06
2022-08-22T22:33:03.977Z,93847.31
2022-08-22T22:35:32.775Z,93842.34
2022-08-22T22:38:01.146Z,93841.06
2022-08-22T22:40:29.371Z,93833.56
2022-08-22T22:42:57.504Z,93835.41
2022-08-22T22:45:26.988Z,93821.84
2022-08-22T22:47:55.145Z,93815.31
2022-08-22T22:50:23.255Z,93810.22
2022-08-22T22:52:51.345Z,93813.00
2022-08-22T22:55:24.929Z,93824.75
2022-08-22T22:57:59.012Z,93837.16
2022-08-22T23:00:30.803Z,93832.16
2022-08-22T23:03:00.268Z,93835.22
2022-08-22T23:05:28.791Z,93836.84
2022-08-22T23:07:57.202Z,93836.28
2022-08-22T23:10:25.539Z,93833.56
2022-08-22T23:12:53.570Z,93839.47
2022-08-22T23:15:21.620Z,93843.75
2022-08-22T23:17:51.283Z,93844.28
2022-08-22T23:20:19.935Z,93841.59
2022-08-22T23:22:48.576Z,93843.13
2022-08-22T23:25:16.673Z,93850.09
2022-08-22T23:27:45.083Z,93847.66
2022-08-22T23:30:20.279Z,93861.44
2022-08-22T23:32:48.582Z,93864.06
2022-08-22T23:35:18.249Z,93864.84
2022-08-22T23:37:46.456Z,93864.22
2022-08-22T23:40:14.510Z,93865.72
2022-08-22T23:42:43.215Z,93860.88
2022-08-22T23:45:11.387Z,93866.91
2022-08-22T23:47:39.496Z,93867.50
2022-08-22T23:50:07.814Z,93858.81
2022-08-22T23:52:37.767Z,93862.00
2022-08-22T23:55:06.696Z,93862.16
2022-08-22T23:57:34.753Z,93858.50
